Time;durP1;ratioP1;P1;durP2;ratioP2;P2;SDS_P1;SDS_P2;PMS_P1;PMS_P2;Temp;Humidity;BMP_temperature;BMP_pressure;BME280_temperature;BME280_humidity;BME280_pressure;Samples;Min_cycle;Max_cycle;Signal;HPM_P1;HPM_P2
2022/04/01 00:00:46;;;;;;;22.42;12.60;;;12.00;99.90;;;;;;5039773;28;20052;-76
2022/04/01 00:03:13;;;;;;;22.10;13.38;;;12.00;99.90;;;;;;5058626;28;20089;-75
2022/04/01 00:05:41;;;;;;;21.05;11.38;;;12.10;99.90;;;;;;5077580;28;20044;-76
2022/04/01 00:08:10;;;;;;;22.35;11.57;;;12.10;99.90;;;;;;5093415;28;20052;-75
2022/04/01 00:10:39;;;;;;;27.02;16.30;;;12.10;99.90;;;;;;5077225;28;20063;-75
2022/04/01 00:13:07;;;;;;;26.45;15.52;;;12.20;99.90;;;;;;5058243;28;20090;-76
2022/04/01 00:15:35;;;;;;;22.40;13.48;;;12.10;99.90;;;;;;5058435;28;20487;-75
2022/04/01 00:18:03;;;;;;;20.38;12.63;;;12.10;99.90;;;;;;5076283;28;20115;-76
2022/04/01 00:20:32;;;;;;;17.92;10.02;;;12.10;99.90;;;;;;5058775;28;20048;-74
2022/04/01 00:22:59;;;;;;;17.85;9.57;;;12.10;99.90;;;;;;5058515;28;20043;-76
2022/04/01 00:25:27;;;;;;;20.60;10.52;;;12.00;99.90;;;;;;5075936;28;20045;-77
2022/04/01 00:27:56;;;;;;;20.48;12.00;;;11.90;99.90;;;;;;5076555;28;20048;-76
2022/04/01 00:30:24;;;;;;;22.65;13.18;;;11.80;99.90;;;;;;5057875;28;20140;-75
2022/04/01 00:32:52;;;;;;;23.92;13.45;;;11.80;99.90;;;;;;5057669;28;20399;-76
2022/04/01 00:35:19;;;;;;;38.67;23.40;;;11.70;99.90;;;;;;5076097;28;20415;-75
2022/04/01 00:37:47;;;;;;;31.48;19.55;;;11.80;99.90;;;;;;5075976;28;20090;-75
2022/04/01 00:40:14;;;;;;;18.88;10.57;;;11.80;99.90;;;;;;5057834;28;20547;-76
2022/04/01 00:42:44;;;;;;;14.65;8.70;;;11.80;99.90;;;;;;5057984;28;20075;-74
2022/04/01 00:45:16;;;;;;;25.63;14.57;;;11.80;99.90;;;;;;5076686;28;20041;-76
2022/04/01 00:47:43;;;;;;;20.85;12.32;;;11.80;99.90;;;;;;5059332;28;20056;-77
2022/04/01 00:50:12;;;;;;;15.07;8.77;;;11.80;99.90;;;;;;5079745;28;20500;-76
2022/04/01 00:52:40;;;;;;;15.98;9.02;;;11.80;99.90;;;;;;5064696;28;20051;-76
2022/04/01 00:55:09;;;;;;;16.90;9.98;;;11.70;99.90;;;;;;5061592;28;20506;-76
2022/04/01 00:57:37;;;;;;;22.42;11.82;;;11.70;99.90;;;;;;5081131;28;20045;-76
2022/04/01 01:00:06;;;;;;;23.13;13.50;;;11.70;99.90;;;;;;5060077;28;20101;-77
2022/04/01 01:02:36;;;;;;;23.55;12.95;;;11.60;99.90;;;;;;5075825;28;20048;-77
2022/04/01 01:05:04;;;;;;;23.23;11.10;;;11.50;99.90;;;;;;5058279;28;20051;-76
2022/04/01 01:07:32;;;;;;;21.63;11.43;;;11.50;99.90;;;;;;5058261;28;20566;-75
2022/04/01 01:10:00;;;;;;;21.77;11.02;;;11.40;1.00;;;;;;5057605;28;20418;-76
2022/04/01 01:12:29;;;;;;;19.42;11.27;;;11.40;1.00;;;;;;5057361;28;20049;-77
2022/04/01 01:14:56;;;;;;;20.90;10.70;;;11.40;1.00;;;;;;5057579;28;20040;-77
2022/04/01 01:17:24;;;;;;;21.83;10.68;;;11.40;1.00;;;;;;5057317;28;20073;-76
2022/04/01 01:19:53;;;;;;;20.08;11.13;;;11.30;1.00;;;;;;5056925;28;20045;-75
2022/04/01 01:22:20;;;;;;;17.52;9.07;;;11.30;1.00;;;;;;5056809;28;20044;-76
2022/04/01 01:24:49;;;;;;;16.08;8.10;;;11.30;1.00;;;;;;5056691;28;20071;-76
2022/04/01 01:27:17;;;;;;;16.08;7.90;;;11.30;1.00;;;;;;5056944;28;20058;-76
2022/04/01 01:29:46;;;;;;;16.13;8.70;;;11.40;1.00;;;;;;5056380;28;20522;-76
2022/04/01 01:32:19;;;;;;;18.80;9.18;;;11.40;1.00;;;;;;5056686;28;20049;-76
2022/04/01 01:34:47;;;;;;;14.25;8.50;;;11.30;1.00;;;;;;5074480;28;20048;-77
2022/04/01 01:37:14;;;;;;;16.95;9.18;;;11.20;1.00;;;;;;5057019;28;20043;-76
2022/04/01 01:39:42;;;;;;;15.55;8.63;;;11.20;1.00;;;;;;5056708;28;20118;-76
2022/04/01 01:42:13;;;;;;;17.13;9.30;;;11.20;1.00;;;;;;5053657;28;20056;-77
2022/04/01 01:44:41;;;;;;;17.20;8.15;;;11.20;1.00;;;;;;5052808;28;20397;-76
2022/04/01 01:47:10;;;;;;;16.98;9.35;;;11.10;1.00;;;;;;5053183;28;20095;-76
2022/04/01 01:49:38;;;;;;;22.10;11.88;;;11.10;1.00;;;;;;5053346;28;20048;-76
2022/04/01 01:55:03;;;;;;;19.95;10.05;;;11.00;1.00;;;;;;4998763;28;20053;-76
2022/04/01 01:57:35;;;;;;;19.70;9.77;;;11.00;1.00;;;;;;5041103;28;20526;-77
2022/04/01 02:00:10;;;;;;;17.45;8.35;;;11.00;1.00;;;;;;5055141;28;20049;-76
2022/04/01 02:02:40;;;;;;;12.13;5.95;;;11.00;1.00;;;;;;5056375;28;20128;-76
2022/04/01 02:05:08;;;;;;;13.63;7.80;;;11.10;1.00;;;;;;5055571;28;20094;-76
2022/04/01 02:07:36;;;;;;;20.90;9.27;;;11.00;1.00;;;;;;5053916;28;20565;-76
2022/04/01 02:10:04;;;;;;;19.67;11.00;;;11.00;1.00;;;;;;5053661;28;20060;-76
2022/04/01 02:12:33;;;;;;;24.95;12.43;;;11.00;1.00;;;;;;5052961;28;20045;-77
2022/04/01 02:15:02;;;;;;;18.90;11.15;;;11.00;1.00;;;;;;5052796;28;20416;-77
2022/04/01 02:17:31;;;;;;;15.65;6.28;;;10.90;1.00;;;;;;5053226;28;20075;-76
2022/04/01 02:19:59;;;;;;;16.70;6.95;;;10.90;1.00;;;;;;5052988;28;20053;-77
2022/04/01 02:22:28;;;;;;;13.77;6.63;;;10.80;1.00;;;;;;5052288;28;20053;-76
2022/04/01 02:24:57;;;;;;;11.27;6.28;;;10.80;1.00;;;;;;5052632;28;20110;-74
2022/04/01 02:27:25;;;;;;;13.88;6.10;;;10.70;1.00;;;;;;5052738;28;20048;-76
2022/04/01 02:29:54;;;;;;;17.00;6.40;;;10.70;1.00;;;;;;5052918;28;20575;-76
2022/04/01 02:32:45;;;;;;;12.45;6.00;;;10.60;18.10;;;;;;5053853;28;20044;-76
2022/04/01 02:35:29;;;;;;;13.27;6.38;;;10.60;30.80;;;;;;5052642;28;20504;-76
2022/04/01 02:37:58;;;;;;;20.45;11.35;;;10.50;32.00;;;;;;5052729;28;20049;-75
2022/04/01 02:40:26;;;;;;;20.95;11.55;;;10.50;76.20;;;;;;5052367;28;20059;-76
2022/04/01 02:42:58;;;;;;;19.67;11.93;;;10.50;99.90;;;;;;5052465;28;20110;-76
2022/04/01 02:45:28;;;;;;;18.80;10.27;;;10.50;99.90;;;;;;5052655;28;20095;-76
2022/04/01 02:47:55;;;;;;;20.15;10.18;;;10.50;99.90;;;;;;5052499;28;20060;-76
2022/04/01 02:50:26;;;;;;;19.67;9.77;;;10.60;99.90;;;;;;5052774;28;20476;-76
2022/04/01 02:52:53;;;;;;;13.18;5.88;;;10.60;99.90;;;;;;5052291;28;20136;-75
2022/04/01 02:55:21;;;;;;;10.32;5.45;;;10.60;90.20;;;;;;5053381;28;20543;-75
2022/04/01 02:57:50;;;;;;;12.65;5.60;;;10.50;99.90;;;;;;5060110;28;20072;-75
2022/04/01 03:00:21;;;;;;;18.38;7.70;;;10.40;99.90;;;;;;5055835;28;20041;-75
2022/04/01 03:02:59;;;;;;;13.48;7.80;;;10.30;99.90;;;;;;5056006;28;20045;-75
2022/04/01 03:05:32;;;;;;;14.63;8.40;;;10.30;99.90;;;;;;5077242;28;20064;-75
2022/04/01 03:08:00;;;;;;;15.23;8.30;;;10.10;99.90;;;;;;5074894;28;20057;-74
2022/04/01 03:10:30;;;;;;;21.88;9.55;;;10.10;99.90;;;;;;5061899;28;20049;-74
2022/04/01 03:12:59;;;;;;;20.60;10.50;;;10.10;99.90;;;;;;5056053;28;20063;-77
2022/04/01 03:15:47;;;;;;;15.82;9.15;;;10.10;99.90;;;;;;5036492;28;20134;-75
2022/04/01 03:18:40;;;;;;;16.67;9.68;;;10.10;99.90;;;;;;5058063;28;20187;-76
2022/04/01 03:21:11;;;;;;;31.10;13.65;;;10.10;99.90;;;;;;5056851;28;20064;-75
2022/04/01 03:23:45;;;;;;;18.13;9.05;;;10.10;99.90;;;;;;5057426;28;20045;-75
2022/04/01 03:26:16;;;;;;;21.02;10.20;;;10.10;99.90;;;;;;5057682;28;20048;-74
2022/04/01 03:28:55;;;;;;;18.08;11.27;;;10.00;99.90;;;;;;5057564;28;20045;-75
2022/04/01 03:31:28;;;;;;;24.60;11.95;;;9.90;99.90;;;;;;5056357;28;20056;-75
2022/04/01 03:33:59;;;;;;;24.65;13.32;;;9.80;1.00;;;;;;5055950;28;20071;-75
2022/04/01 03:36:26;;;;;;;26.88;11.55;;;9.80;1.00;;;;;;5057044;28;20514;-76
2022/04/01 03:38:56;;;;;;;18.58;9.77;;;9.80;1.00;;;;;;5056311;28;20132;-75
2022/04/01 03:41:31;;;;;;;22.20;13.25;;;9.80;1.00;;;;;;5055128;28;20057;-75
2022/04/01 03:44:01;;;;;;;27.70;11.80;;;9.90;1.00;;;;;;5055641;28;20140;-75
2022/04/01 03:46:48;;;;;;;18.65;10.85;;;9.90;1.00;;;;;;5055813;28;20045;-75
2022/04/01 03:49:23;;;;;;;14.68;6.80;;;9.90;1.00;;;;;;5055993;28;20518;-75
2022/04/01 03:51:53;;;;;;;22.27;13.48;;;9.80;1.00;;;;;;5056803;28;20056;-75
2022/04/01 03:54:21;;;;;;;27.85;16.00;;;9.70;1.00;;;;;;5056360;28;20040;-75
2022/04/01 03:57:02;;;;;;;32.33;17.92;;;9.60;1.00;;;;;;5057090;28;20386;-76
2022/04/01 03:59:52;;;;;;;28.48;15.93;;;9.50;1.00;;;;;;5056860;28;20060;-75
2022/04/01 04:02:40;;;;;;;24.33;12.45;;;9.50;1.00;;;;;;5056597;28;20099;-75
2022/04/01 04:05:10;;;;;;;19.67;9.35;;;9.30;1.00;;;;;;5055561;28;20037;-75
2022/04/01 04:07:40;;;;;;;21.30;8.50;;;9.40;1.00;;;;;;5055966;28;20053;-74
2022/04/01 04:10:13;;;;;;;17.17;8.77;;;9.30;1.00;;;;;;5057059;28;20045;-74
2022/04/01 04:12:59;;;;;;;20.95;12.25;;;9.30;1.00;;;;;;5056883;28;20290;-75
2022/04/01 04:15:39;;;;;;;30.77;14.05;;;9.30;1.00;;;;;;5056143;28;20040;-74
2022/04/01 04:18:12;;;;;;;42.53;23.50;;;9.30;1.00;;;;;;5057146;28;20071;-76
2022/04/01 04:21:04;;;;;;;46.75;24.55;;;9.20;32.60;;;;;;5057946;28;20072;-75
2022/04/01 04:23:39;;;;;;;24.63;12.80;;;9.30;25.40;;;;;;5058369;28;20055;-76
2022/04/01 04:26:12;;;;;;;27.45;12.05;;;9.30;1.00;;;;;;5065634;28;20052;-75
2022/04/01 04:28:50;;;;;;;33.47;15.13;;;9.30;2.60;;;;;;5061157;28;20048;-74
2022/04/01 04:32:02;;;;;;;31.05;15.70;;;9.30;1.00;;;;;;5016211;28;20541;-75
2022/04/01 04:34:35;;;;;;;34.58;18.30;;;9.40;1.00;;;;;;5050599;28;20045;-76
2022/04/01 04:37:09;;;;;;;32.53;16.73;;;9.30;1.00;;;;;;5055934;28;20523;-76
2022/04/01 04:39:41;;;;;;;30.35;14.13;;;9.30;1.00;;;;;;5055112;28;20076;-75
2022/04/01 04:42:09;;;;;;;27.40;14.45;;;9.40;1.00;;;;;;5055509;28;20056;-75
2022/04/01 04:44:38;;;;;;;32.33;16.90;;;9.40;1.00;;;;;;5063671;28;20496;-76
2022/04/01 04:47:08;;;;;;;42.17;18.00;;;9.50;1.00;;;;;;5065938;28;20044;-74
2022/04/01 04:49:37;;;;;;;31.85;15.88;;;9.50;1.00;;;;;;5060956;28;20102;-76
2022/04/01 04:52:08;;;;;;;34.63;16.17;;;9.50;1.00;;;;;;5061084;28;20098;-75
2022/04/01 04:54:47;;;;;;;49.05;24.80;;;9.60;1.00;;;;;;5061441;28;20134;-74
2022/04/01 04:57:42;;;;;;;39.72;17.58;;;9.70;1.00;;;;;;5045832;28;20507;-75
2022/04/01 05:00:11;;;;;;;38.67;20.58;;;9.70;1.00;;;;;;5062385;28;20518;-75
2022/04/01 05:03:13;;;;;;;31.35;16.55;;;9.70;1.00;;;;;;5061418;28;20049;-74
2022/04/01 05:05:44;;;;;;;34.53;16.30;;;9.70;1.00;;;;;;5062779;28;20045;-74
2022/04/01 05:08:48;;;;;;;33.38;17.25;;;9.80;1.00;;;;;;5063717;28;20048;-74
2022/04/01 05:11:26;;;;;;;48.60;27.27;;;9.80;1.00;;;;;;5063815;28;20052;-75
2022/04/01 05:14:00;;;;;;;60.40;34.30;;;9.90;1.00;;;;;;5061109;28;20037;-75
2022/04/01 05:16:33;;;;;;;57.08;29.73;;;9.90;1.00;;;;;;5059279;28;20036;-75
2022/04/01 05:19:10;;;;;;;44.30;25.10;;;10.00;1.00;;;;;;5057476;28;20484;-76
2022/04/01 05:21:52;;;;;;;44.55;20.63;;;10.20;99.90;;;;;;5058102;28;20052;-75
2022/04/01 05:24:27;;;;;;;38.92;17.55;;;10.30;99.90;;;;;;5060886;28;20049;-75
2022/04/01 05:27:00;;;;;;;41.60;20.55;;;10.50;99.90;;;;;;5061278;28;20079;-75
2022/04/01 05:30:12;;;;;;;58.28;27.13;;;10.70;99.90;;;;;;5059422;28;20055;-76
2022/04/01 05:32:58;;;;;;;40.15;19.63;;;11.00;99.20;;;;;;5063331;28;20051;-75
2022/04/01 05:35:29;;;;;;;44.42;22.90;;;11.20;1.00;;;;;;5066540;28;20261;-75
2022/04/01 05:37:58;;;;;;;51.72;27.45;;;11.30;1.00;;;;;;5069603;28;20053;-75
2022/04/01 05:40:29;;;;;;;46.65;26.02;;;11.40;1.00;;;;;;5053726;28;20053;-76
2022/04/01 05:43:00;;;;;;;49.53;26.17;;;11.50;1.00;;;;;;5057038;28;20543;-77
2022/04/01 05:45:37;;;;;;;50.10;28.63;;;11.50;1.00;;;;;;5059559;28;20075;-79
2022/04/01 05:48:11;;;;;;;59.22;31.77;;;11.80;1.00;;;;;;5095053;28;20060;-79
2022/04/01 05:50:39;;;;;;;48.85;23.10;;;12.10;1.00;;;;;;5060513;28;20071;-79
2022/04/01 05:53:08;;;;;;;55.25;28.35;;;12.30;1.00;;;;;;5059154;28;20120;-80
2022/04/01 05:55:57;;;;;;;45.38;22.58;;;12.50;1.00;;;;;;5059162;28;20045;-79
2022/04/01 05:58:26;;;;;;;39.13;22.48;;;12.50;1.00;;;;;;5059310;28;20044;-79
2022/04/01 06:01:04;;;;;;;50.22;24.40;;;12.70;1.00;;;;;;5058932;28;20079;-80
2022/04/01 06:04:09;;;;;;;44.17;23.52;;;13.10;1.00;;;;;;5056758;28;20056;-79
2022/04/01 06:06:41;;;;;;;48.40;23.77;;;13.30;1.00;;;;;;5053291;28;20063;-80
2022/04/01 06:09:27;;;;;;;38.50;21.30;;;13.50;1.00;;;;;;5057746;28;20048;-80
2022/04/01 06:12:29;;;;;;;56.05;24.67;;;13.50;1.00;;;;;;5052591;28;20079;-80
2022/04/01 06:15:19;;;;;;;52.25;27.55;;;13.70;99.90;;;;;;5063709;28;20041;-78
2022/04/01 06:18:14;;;;;;;42.83;24.40;;;14.10;1.00;;;;;;5061678;28;20523;-78
2022/04/01 06:20:44;;;;;;;51.55;27.00;;;14.70;1.00;;;;;;5061404;28;20071;-77
2022/04/01 06:23:27;;;;;;;48.92;26.33;;;15.40;1.00;;;;;;5063207;28;20554;-79
2022/04/01 06:25:58;;;;;;;57.55;30.17;;;16.00;1.00;;;;;;5064515;28;20075;-78
2022/04/01 06:28:32;;;;;;;54.97;30.92;;;16.30;99.90;;;;;;5065351;28;20071;-77
2022/04/01 06:31:06;;;;;;;50.83;26.23;;;16.80;1.00;;;;;;5065214;28;20144;-80
2022/04/01 06:33:49;;;;;;;56.13;28.67;;;17.10;99.90;;;;;;5064205;28;20041;-77
2022/04/01 06:36:51;;;;;;;51.90;29.08;;;17.30;99.90;;;;;;5047411;28;20052;-79
2022/04/01 06:39:26;;;;;;;51.78;28.27;;;17.20;99.90;;;;;;5050430;28;20073;-82
2022/04/01 06:41:58;;;;;;;53.05;29.13;;;17.00;1.00;;;;;;5064983;28;20456;-80
2022/04/01 06:45:06;;;;;;;33.88;17.95;;;16.90;1.00;;;;;;5062447;28;20060;-81
2022/04/01 06:47:52;;;;;;;14.93;6.20;;;16.60;99.90;;;;;;5063504;28;20167;-81
2022/04/01 06:50:21;;;;;;;13.05;5.78;;;16.00;1.00;;;;;;5059569;28;20045;-77
2022/04/01 06:53:21;;;;;;;21.13;10.10;;;15.50;45.00;;;;;;5050540;28;20044;-78
2022/04/01 06:56:21;;;;;;;29.05;12.80;;;15.20;1.00;;;;;;5034456;28;20049;-79
2022/04/01 06:58:49;;;;;;;26.00;13.80;;;15.00;1.00;;;;;;5058787;28;20071;-80
2022/04/01 07:01:18;;;;;;;25.88;12.88;;;15.10;99.90;;;;;;5063314;28;20120;-79
2022/04/01 07:03:46;;;;;;;19.52;10.35;;;15.40;99.90;;;;;;5061543;28;20101;-78
2022/04/01 07:06:13;;;;;;;19.83;10.98;;;15.60;99.90;;;;;;5063384;28;20196;-79
2022/04/01 07:08:41;;;;;;;22.77;10.88;;;16.10;99.90;;;;;;5069357;28;20037;-78
2022/04/01 07:11:09;;;;;;;19.95;10.13;;;16.70;99.90;;;;;;5061668;28;20106;-79
2022/04/01 07:13:37;;;;;;;21.42;12.00;;;17.00;99.90;;;;;;5059121;28;20041;-78
2022/04/01 07:16:06;;;;;;;30.13;18.30;;;17.50;99.90;;;;;;5058787;28;20037;-78
2022/04/01 07:18:36;;;;;;;26.42;16.42;;;18.10;99.90;;;;;;5062055;28;20041;-79
2022/04/01 07:21:03;;;;;;;23.95;13.40;;;18.40;1.00;;;;;;5084739;28;20164;-78
2022/04/01 07:23:32;;;;;;;22.25;14.20;;;18.10;99.90;;;;;;5088472;28;20051;-80
2022/04/01 07:25:59;;;;;;;23.70;12.95;;;17.90;99.90;;;;;;5094565;28;20036;-77
2022/04/01 07:28:27;;;;;;;21.05;12.40;;;17.70;99.90;;;;;;5086889;28;20068;-80
2022/04/01 07:30:55;;;;;;;20.95;12.60;;;17.40;99.90;;;;;;5083185;28;20037;-78
2022/04/01 07:33:22;;;;;;;18.95;9.00;;;17.00;99.90;;;;;;5076628;28;20075;-80
2022/04/01 07:35:51;;;;;;;14.00;7.38;;;16.50;99.90;;;;;;5077990;28;20044;-78
2022/04/01 07:38:19;;;;;;;13.95;7.10;;;16.10;99.90;;;;;;5078108;28;20083;-80
2022/04/01 07:40:47;;;;;;;10.52;5.10;;;15.80;99.90;;;;;;5075466;28;20048;-79
2022/04/01 07:43:14;;;;;;;13.55;5.50;;;15.40;99.90;;;;;;5077342;28;20036;-81
2022/04/01 07:45:43;;;;;;;9.95;4.50;;;15.10;99.90;;;;;;5080103;28;20055;-79
2022/04/01 07:48:11;;;;;;;9.07;4.05;;;15.00;99.90;;;;;;5078572;28;20040;-80
2022/04/01 07:50:39;;;;;;;7.25;3.58;;;14.80;99.90;;;;;;5082793;28;20041;-79
2022/04/01 07:53:08;;;;;;;4.55;2.25;;;14.70;1.00;;;;;;5081481;28;20078;-79
2022/04/01 07:55:35;;;;;;;5.55;2.58;;;14.70;99.90;;;;;;5082683;28;20060;-78
2022/04/01 07:58:03;;;;;;;5.78;2.63;;;14.70;1.00;;;;;;5079905;28;20056;-79
2022/04/01 08:00:30;;;;;;;4.85;2.83;;;14.70;99.90;;;;;;5078586;28;20045;-79
2022/04/01 08:02:58;;;;;;;7.28;3.58;;;14.80;1.00;;;;;;5080747;28;20049;-79
2022/04/01 08:05:26;;;;;;;4.55;2.80;;;14.90;1.00;;;;;;5079826;28;20111;-80
2022/04/01 08:07:53;;;;;;;6.07;2.92;;;14.90;1.00;;;;;;5085413;28;20043;-80
2022/04/01 08:10:22;;;;;;;5.43;2.70;;;15.10;1.00;;;;;;5084271;28;20048;-79
2022/04/01 08:12:50;;;;;;;3.70;1.60;;;15.20;1.00;;;;;;5084163;28;20050;-78
2022/04/01 08:15:18;;;;;;;3.92;1.90;;;15.20;1.00;;;;;;5083208;28;20048;-77
2022/04/01 08:17:46;;;;;;;7.00;2.20;;;15.40;1.00;;;;;;5085521;28;20454;-79
2022/04/01 08:20:13;;;;;;;4.30;2.38;;;15.60;1.00;;;;;;5086390;28;20075;-79
2022/04/01 08:22:42;;;;;;;5.32;2.55;;;15.70;1.00;;;;;;5083250;28;20045;-79
2022/04/01 08:25:11;;;;;;;8.13;2.65;;;15.70;1.00;;;;;;5087498;28;20062;-79
2022/04/01 08:27:40;;;;;;;5.00;2.60;;;15.90;1.00;;;;;;5086652;28;20088;-80
2022/04/01 08:30:08;;;;;;;4.20;2.28;;;15.90;1.00;;;;;;5086356;28;20041;-79
2022/04/01 08:32:37;;;;;;;5.78;2.90;;;15.90;1.00;;;;;;5088465;28;20128;-80
2022/04/01 08:35:05;;;;;;;4.45;2.42;;;16.20;1.00;;;;;;5088048;28;20044;-79
2022/04/01 08:37:33;;;;;;;9.50;2.65;;;16.30;43.20;;;;;;5088101;28;20075;-79
2022/04/01 08:40:00;;;;;;;12.57;5.90;;;16.40;1.00;;;;;;5082584;28;20053;-78
2022/04/01 08:42:28;;;;;;;10.05;4.75;;;16.50;24.20;;;;;;5083745;28;20040;-78
2022/04/01 08:44:58;;;;;;;10.40;4.07;;;16.70;1.00;;;;;;5084730;28;20052;-78
2022/04/01 08:47:25;;;;;;;9.43;4.07;;;17.00;56.90;;;;;;5082325;28;20063;-78
2022/04/01 08:49:54;;;;;;;9.00;3.90;;;17.30;49.20;;;;;;5084607;28;20048;-76
2022/04/01 08:52:22;;;;;;;10.05;3.97;;;17.60;99.90;;;;;;5082875;28;20048;-79
2022/04/01 08:54:50;;;;;;;7.75;4.05;;;18.00;99.90;;;;;;5082090;28;20044;-79
2022/04/01 08:57:21;;;;;;;13.18;5.32;;;17.90;99.90;;;;;;5081396;28;20105;-79
2022/04/01 08:59:49;;;;;;;16.38;8.10;;;17.90;99.90;;;;;;5084169;28;20388;-79
2022/04/01 09:02:19;;;;;;;19.92;10.93;;;18.00;1.00;;;;;;5079678;28;20070;-79
2022/04/01 09:04:52;;;;;;;19.48;10.63;;;18.20;99.90;;;;;;5080928;28;20072;-77
2022/04/01 09:07:19;;;;;;;14.07;7.70;;;18.40;99.90;;;;;;5082326;28;20067;-80
2022/04/01 09:09:46;;;;;;;11.75;5.75;;;18.50;1.00;;;;;;5082826;28;20056;-80
2022/04/01 09:12:16;;;;;;;24.90;12.20;;;18.80;1.00;;;;;;5087544;28;20062;-80
2022/04/01 09:14:51;;;;;;;7.80;4.68;;;19.00;1.00;;;;;;5086983;28;20064;-77
2022/04/01 09:17:20;;;;;;;14.85;7.32;;;18.80;99.90;;;;;;5082132;28;20037;-79
2022/04/01 09:19:48;;;;;;;13.23;5.53;;;18.90;1.00;;;;;;5078763;28;20400;-79
2022/04/01 09:22:17;;;;;;;7.80;3.33;;;19.20;99.90;;;;;;5078119;28;20068;-79
2022/04/01 09:25:02;;;;;;;10.85;5.15;;;19.40;1.00;;;;;;5081859;28;20037;-78
2022/04/01 09:27:41;;;;;;;8.18;3.60;;;19.50;99.90;;;;;;5080387;28;20041;-80
2022/04/01 09:30:11;;;;;;;4.85;2.95;;;19.20;1.00;;;;;;5081935;28;20048;-81
2022/04/01 09:32:41;;;;;;;5.95;3.25;;;18.70;1.00;;;;;;5083505;28;20081;-80
2022/04/01 09:35:10;;;;;;;5.63;2.13;;;18.60;99.90;;;;;;5082499;28;20442;-80
2022/04/01 09:37:39;;;;;;;5.38;2.00;;;18.60;1.00;;;;;;5084761;28;20115;-79
2022/04/01 09:40:08;;;;;;;6.95;3.08;;;18.60;1.00;;;;;;5084441;28;20426;-80
2022/04/01 09:42:36;;;;;;;5.80;1.70;;;18.80;99.90;;;;;;5104951;28;20040;-78
2022/04/01 09:45:04;;;;;;;3.38;1.50;;;19.00;1.00;;;;;;5090746;28;20052;-80
2022/04/01 09:47:37;;;;;;;6.88;1.80;;;19.00;35.80;;;;;;5085143;28;20056;-79
2022/04/01 09:50:13;;;;;;;7.75;1.98;;;18.50;99.90;;;;;;5103619;28;20048;-80
2022/04/01 09:52:41;;;;;;;8.30;3.28;;;18.70;99.90;;;;;;5106545;28;20055;-79
2022/04/01 09:55:10;;;;;;;5.72;2.65;;;18.90;1.00;;;;;;5101576;28;20127;-79
2022/04/01 09:57:38;;;;;;;10.60;2.75;;;19.10;1.00;;;;;;5099778;28;20066;-79
2022/04/01 10:00:09;;;;;;;4.30;2.03;;;19.20;1.00;;;;;;5099105;28;20483;-78
2022/04/01 10:02:40;;;;;;;5.30;2.20;;;19.30;1.00;;;;;;5081065;28;20041;-80
2022/04/01 10:05:08;;;;;;;4.57;2.60;;;19.50;1.00;;;;;;5080353;28;20469;-76
2022/04/01 10:07:37;;;;;;;9.20;3.70;;;19.30;99.90;;;;;;5080845;28;20029;-80
2022/04/01 10:10:07;;;;;;;6.32;3.90;;;19.30;1.00;;;;;;5079173;28;20047;-80
2022/04/01 10:12:42;;;;;;;5.32;1.85;;;19.40;1.00;;;;;;5063785;28;20077;-79
2022/04/01 10:15:11;;;;;;;6.43;2.80;;;19.10;1.00;;;;;;5088365;28;20055;-79
2022/04/01 10:17:42;;;;;;;5.13;1.77;;;19.10;1.00;;;;;;5072044;28;20067;-81
2022/04/01 10:20:13;;;;;;;7.90;2.42;;;19.20;1.00;;;;;;5083919;28;20059;-81
2022/04/01 10:22:45;;;;;;;4.40;1.77;;;19.40;1.00;;;;;;5076484;28;20059;-79
2022/04/01 10:25:17;;;;;;;5.90;1.90;;;19.40;1.00;;;;;;5058940;28;20086;-79
2022/04/01 10:27:49;;;;;;;4.43;1.10;;;19.40;99.90;;;;;;5076232;28;20475;-79
2022/04/01 10:30:18;;;;;;;5.32;1.80;;;19.40;1.00;;;;;;5076697;28;20049;-82
2022/04/01 10:32:47;;;;;;;5.80;1.13;;;19.50;1.00;;;;;;5058007;28;20040;-80
2022/04/01 10:35:26;;;;;;;4.75;1.42;;;19.40;1.00;;;;;;5078481;28;20037;-80
2022/04/01 10:37:57;;;;;;;12.50;3.08;;;19.20;1.00;;;;;;5078533;28;20048;-79
2022/04/01 10:40:31;;;;;;;3.83;1.17;;;19.30;99.90;;;;;;5077100;28;20047;-78
2022/04/01 10:43:11;;;;;;;5.97;1.50;;;19.20;99.90;;;;;;5078873;28;20048;-79
2022/04/01 10:45:40;;;;;;;3.78;1.35;;;19.00;99.90;;;;;;5063176;28;20043;-80
2022/04/01 10:51:37;;;;;;;4.32;1.60;;;19.20;99.90;;;;;;5080612;28;20040;-78
2022/04/01 10:54:37;;;;;;;4.18;2.20;;;19.00;99.90;;;;;;5071337;28;20066;-79
2022/04/01 10:57:07;;;;;;;5.05;1.67;;;18.90;1.00;;;;;;5087107;28;20068;-78
2022/04/01 10:59:40;;;;;;;7.18;1.42;;;19.00;1.00;;;;;;5079036;28;20048;-78
2022/04/01 11:02:09;;;;;;;8.10;1.73;;;19.00;99.90;;;;;;5079461;28;20069;-79
2022/04/01 11:04:39;;;;;;;5.18;2.03;;;19.10;40.30;;;;;;5078273;28;20495;-78
2022/04/01 11:07:09;;;;;;;6.82;2.97;;;19.10;1.00;;;;;;5091524;28;20032;-79
2022/04/01 11:09:45;;;;;;;8.52;3.15;;;19.30;99.90;;;;;;5080132;28;20059;-80
2022/04/01 11:12:30;;;;;;;7.03;2.92;;;19.60;1.00;;;;;;5102518;28;20077;-79
2022/04/01 11:15:16;;;;;;;9.77;2.30;;;19.60;99.90;;;;;;5103755;28;20040;-80
2022/04/01 11:18:02;;;;;;;;;;;19.50;1.00;;;;;;5098423;28;20462;-78
2022/04/01 11:20:32;;;;;;;4.47;1.50;;;19.70;1.00;;;;;;5082632;28;19920;-79
2022/04/01 11:23:04;;;;;;;4.78;1.88;;;19.50;1.00;;;;;;5082244;28;20052;-78
2022/04/01 11:25:57;;;;;;;5.00;2.42;;;19.80;1.00;;;;;;5089052;28;20054;-79
2022/04/01 11:28:29;;;;;;;5.43;2.03;;;20.00;1.00;;;;;;5090854;28;20060;-78
2022/04/01 11:31:10;;;;;;;7.80;1.88;;;20.30;1.00;;;;;;5090497;28;20118;-78
2022/04/01 11:33:38;;;;;;;8.60;4.07;;;20.70;1.00;;;;;;5090777;28;20070;-79
2022/04/01 11:36:07;;;;;;;5.28;2.72;;;20.90;1.00;;;;;;5082037;28;20044;-77
2022/04/01 11:38:36;;;;;;;6.45;2.30;;;21.30;1.00;;;;;;5089125;28;20406;-80
2022/04/01 11:41:06;;;;;;;6.75;2.58;;;21.20;1.00;;;;;;5094326;28;20084;-76
2022/04/01 11:43:34;;;;;;;5.65;2.30;;;21.30;1.00;;;;;;5087878;28;20045;-78
2022/04/01 11:46:06;;;;;;;7.18;3.13;;;21.00;1.00;;;;;;5081473;28;20044;-77
2022/04/01 11:48:36;;;;;;;6.53;2.55;;;20.70;1.00;;;;;;5086449;28;20119;-77
2022/04/01 11:51:05;;;;;;;4.78;1.75;;;20.10;1.00;;;;;;5080131;28;20040;-77
2022/04/01 11:53:36;;;;;;;5.82;3.83;;;20.10;1.00;;;;;;5110978;28;20052;-77
2022/04/01 11:56:06;;;;;;;4.82;1.88;;;20.00;1.00;;;;;;5093930;28;20094;-77
2022/04/01 11:58:36;;;;;;;8.48;2.08;;;19.80;1.00;;;;;;5077372;28;20044;-76
2022/04/01 12:01:04;;;;;;;6.13;3.67;;;19.90;1.00;;;;;;5077920;28;20064;-76
2022/04/01 12:03:32;;;;;;;4.90;2.28;;;20.00;1.00;;;;;;5076729;28;20044;-77
2022/04/01 12:08:46;;;;;;;7.00;3.30;;;19.90;1.00;;;;;;5077871;28;20047;-76
2022/04/01 12:11:15;;;;;;;5.38;2.33;;;20.00;1.00;;;;;;5077126;28;20060;-77
2022/04/01 12:13:49;;;;;;;4.75;2.00;;;20.10;1.00;;;;;;5077086;28;20487;-76
2022/04/01 12:16:18;;;;;;;7.03;2.10;;;20.20;1.00;;;;;;5082699;28;20047;-77
2022/04/01 12:18:47;;;;;;;5.70;2.03;;;20.00;1.00;;;;;;5079522;28;20525;-76
2022/04/01 12:21:19;;;;;;;6.35;2.58;;;19.90;1.00;;;;;;5062359;28;20433;-76
2022/04/01 12:23:48;;;;;;;8.95;2.55;;;19.90;1.00;;;;;;5084335;28;20039;-77
2022/04/01 12:26:19;;;;;;;9.00;3.15;;;20.00;1.00;;;;;;5097220;28;20099;-77
2022/04/01 12:28:50;;;;;;;5.35;2.78;;;20.20;1.00;;;;;;5078290;28;20056;-76
2022/04/01 12:31:19;;;;;;;4.63;2.05;;;20.10;1.00;;;;;;5075058;28;20048;-78
2022/04/01 12:33:49;;;;;;;5.55;2.30;;;20.20;1.00;;;;;;5072256;28;20411;-78
2022/04/01 12:36:18;;;;;;;4.45;1.45;;;20.00;1.00;;;;;;5074467;28;20028;-76
2022/04/01 12:39:01;;;;;;;3.80;1.55;;;20.00;1.00;;;;;;5076109;28;20430;-76
2022/04/01 12:41:30;;;;;;;8.88;2.55;;;19.90;1.00;;;;;;5076155;28;20049;-78
2022/04/01 12:44:00;;;;;;;15.40;8.23;;;20.10;1.00;;;;;;5076374;28;20068;-77
2022/04/01 12:46:34;;;;;;;5.28;1.60;;;20.40;1.00;;;;;;5092104;28;20113;-76
2022/04/01 12:49:12;;;;;;;5.90;1.70;;;20.20;1.00;;;;;;5077049;28;20047;-77
2022/04/01 12:51:41;;;;;;;7.30;1.92;;;20.40;1.00;;;;;;5065932;28;20044;-77
2022/04/01 12:54:10;;;;;;;4.25;2.00;;;20.70;1.00;;;;;;5079750;28;20045;-77
2022/04/01 12:56:41;;;;;;;5.82;3.38;;;20.20;1.00;;;;;;5059647;28;20478;-77
2022/04/01 12:59:10;;;;;;;9.65;1.80;;;19.90;1.00;;;;;;5078308;28;20074;-78
2022/04/01 13:01:40;;;;;;;6.80;2.10;;;19.80;1.00;;;;;;5075990;28;20131;-77
2022/04/01 13:04:08;;;;;;;6.10;3.38;;;20.00;1.00;;;;;;5075779;28;20131;-76
2022/04/01 13:06:36;;;;;;;5.75;1.70;;;20.00;1.00;;;;;;5075437;28;20037;-77
2022/04/01 13:09:07;;;;;;;6.90;2.50;;;20.20;1.00;;;;;;5090464;28;20142;-77
2022/04/01 13:11:44;;;;;;;8.43;3.75;;;20.20;1.00;;;;;;5063521;28;20143;-78
2022/04/01 13:14:22;;;;;;;5.40;1.58;;;20.00;1.00;;;;;;5059423;28;20047;-79
2022/04/01 13:16:51;;;;;;;7.57;2.00;;;19.90;1.00;;;;;;5076955;28;20081;-78
2022/04/01 13:19:20;;;;;;;18.35;14.30;;;19.90;1.00;;;;;;5078268;28;20052;-76